sensor_id;sensor_type;location;lat;lon;timestamp;P1;durP1;ratioP1;P2;durP2;ratioP2
39890;SDS011;25564;53.312;9.790;2022-08-02T00:01:37;2.77;;;1.80;;
39890;SDS011;25564;53.312;9.790;2022-08-02T00:04:10;7.93;;;2.10;;
39890;SDS011;25564;53.312;9.790;2022-08-02T00:06:41;9.47;;;2.57;;
39890;SDS011;25564;53.312;9.790;2022-08-02T00:09:13;3.87;;;2.00;;
39890;SDS011;25564;53.312;9.790;2022-08-02T00:11:46;8.43;;;2.43;;
39890;SDS011;25564;53.312;9.790;2022-08-02T00:14:17;6.13;;;2.07;;
39890;SDS011;25564;53.312;9.790;2022-08-02T00:16:49;5.97;;;2.00;;
39890;SDS011;25564;53.312;9.790;2022-08-02T00:19:20;6.27;;;2.13;;
39890;SDS011;25564;53.312;9.790;2022-08-02T00:21:52;4.83;;;1.93;;
39890;SDS011;25564;53.312;9.790;2022-08-02T00:24:23;6.10;;;2.33;;
39890;SDS011;25564;53.312;9.790;2022-08-02T00:27:01;8.53;;;2.23;;
39890;SDS011;25564;53.312;9.790;2022-08-02T00:29:39;4.77;;;2.40;;
39890;SDS011;25564;53.312;9.790;2022-08-02T00:32:23;6.27;;;2.50;;
39890;SDS011;25564;53.312;9.790;2022-08-02T00:34:54;5.47;;;2.13;;
39890;SDS011;25564;53.312;9.790;2022-08-02T00:37:25;3.57;;;2.13;;
39890;SDS011;25564;53.312;9.790;2022-08-02T00:39:57;5.63;;;2.30;;
39890;SDS011;25564;53.312;9.790;2022-08-02T00:42:28;5.17;;;2.90;;
39890;SDS011;25564;53.312;9.790;2022-08-02T00:45:00;4.97;;;1.90;;
39890;SDS011;25564;53.312;9.790;2022-08-02T00:47:31;7.40;;;2.50;;
39890;SDS011;25564;53.312;9.790;2022-08-02T00:50:03;5.50;;;2.10;;
39890;SDS011;25564;53.312;9.790;2022-08-02T00:52:34;7.07;;;2.27;;
39890;SDS011;25564;53.312;9.790;2022-08-02T00:55:06;6.33;;;2.23;;
39890;SDS011;25564;53.312;9.790;2022-08-02T00:57:39;4.03;;;1.73;;
39890;SDS011;25564;53.312;9.790;2022-08-02T01:00:10;7.43;;;1.60;;
39890;SDS011;25564;53.312;9.790;2022-08-02T01:02:42;6.13;;;1.93;;
39890;SDS011;25564;53.312;9.790;2022-08-02T01:05:14;5.70;;;2.50;;
39890;SDS011;25564;53.312;9.790;2022-08-02T01:07:45;5.73;;;1.70;;
39890;SDS011;25564;53.312;9.790;2022-08-02T01:10:17;3.27;;;1.50;;
39890;SDS011;25564;53.312;9.790;2022-08-02T01:12:48;6.57;;;2.20;;
39890;SDS011;25564;53.312;9.790;2022-08-02T01:15:20;6.87;;;2.93;;
39890;SDS011;25564;53.312;9.790;2022-08-02T01:18:07;3.53;;;1.77;;
39890;SDS011;25564;53.312;9.790;2022-08-02T01:20:56;5.00;;;1.77;;
39890;SDS011;25564;53.312;9.790;2022-08-02T01:27:42;3.70;;;1.80;;
39890;SDS011;25564;53.312;9.790;2022-08-02T01:30:10;9.73;;;2.73;;
39890;SDS011;25564;53.312;9.790;2022-08-02T01:32:43;8.13;;;2.00;;
39890;SDS011;25564;53.312;9.790;2022-08-02T01:35:19;7.80;;;2.27;;
39890;SDS011;25564;53.312;9.790;2022-08-02T01:37:55;5.30;;;2.05;;
39890;SDS011;25564;53.312;9.790;2022-08-02T01:40:33;6.83;;;2.00;;
39890;SDS011;25564;53.312;9.790;2022-08-02T01:43:07;5.18;;;1.90;;
39890;SDS011;25564;53.312;9.790;2022-08-02T01:45:42;3.50;;;1.63;;
39890;SDS011;25564;53.312;9.790;2022-08-02T01:48:16;3.87;;;1.80;;
39890;SDS011;25564;53.312;9.790;2022-08-02T01:50:49;4.27;;;1.50;;
39890;SDS011;25564;53.312;9.790;2022-08-02T01:53:21;5.43;;;1.73;;
39890;SDS011;25564;53.312;9.790;2022-08-02T01:55:57;5.97;;;2.10;;
39890;SDS011;25564;53.312;9.790;2022-08-02T01:58:30;3.73;;;1.63;;
39890;SDS011;25564;53.312;9.790;2022-08-02T02:01:06;7.18;;;2.17;;
39890;SDS011;25564;53.312;9.790;2022-08-02T02:03:49;9.50;;;2.53;;
39890;SDS011;25564;53.312;9.790;2022-08-02T02:06:21;5.67;;;1.93;;
39890;SDS011;25564;53.312;9.790;2022-08-02T02:08:53;4.70;;;2.10;;
39890;SDS011;25564;53.312;9.790;2022-08-02T02:11:26;5.90;;;1.93;;
39890;SDS011;25564;53.312;9.790;2022-08-02T02:14:18;3.63;;;1.90;;
39890;SDS011;25564;53.312;9.790;2022-08-02T02:16:51;8.10;;;2.20;;
39890;SDS011;25564;53.312;9.790;2022-08-02T02:19:23;5.93;;;2.00;;
39890;SDS011;25564;53.312;9.790;2022-08-02T02:21:55;3.77;;;1.70;;
39890;SDS011;25564;53.312;9.790;2022-08-02T02:24:27;5.53;;;1.87;;
39890;SDS011;25564;53.312;9.790;2022-08-02T02:26:59;6.03;;;1.97;;
39890;SDS011;25564;53.312;9.790;2022-08-02T02:29:33;2.43;;;1.50;;
39890;SDS011;25564;53.312;9.790;2022-08-02T02:32:08;3.73;;;1.73;;
39890;SDS011;25564;53.312;9.790;2022-08-02T02:34:41;8.07;;;1.93;;
39890;SDS011;25564;53.312;9.790;2022-08-02T02:37:20;4.27;;;1.90;;
39890;SDS011;25564;53.312;9.790;2022-08-02T02:39:54;4.63;;;2.10;;
39890;SDS011;25564;53.312;9.790;2022-08-02T02:42:27;4.97;;;1.80;;
39890;SDS011;25564;53.312;9.790;2022-08-02T02:45:01;4.33;;;1.60;;
39890;SDS011;25564;53.312;9.790;2022-08-02T02:47:33;2.37;;;1.40;;
39890;SDS011;25564;53.312;9.790;2022-08-02T02:50:11;5.57;;;2.07;;
39890;SDS011;25564;53.312;9.790;2022-08-02T02:52:43;3.77;;;1.77;;
39890;SDS011;25564;53.312;9.790;2022-08-02T02:55:16;3.97;;;1.80;;
39890;SDS011;25564;53.312;9.790;2022-08-02T02:57:49;2.73;;;1.40;;
39890;SDS011;25564;53.312;9.790;2022-08-02T03:00:20;4.63;;;1.60;;
39890;SDS011;25564;53.312;9.790;2022-08-02T03:03:13;2.97;;;1.70;;
39890;SDS011;25564;53.312;9.790;2022-08-02T03:05:49;6.67;;;2.63;;
39890;SDS011;25564;53.312;9.790;2022-08-02T03:08:21;5.17;;;1.80;;
39890;SDS011;25564;53.312;9.790;2022-08-02T03:10:53;9.00;;;1.63;;
39890;SDS011;25564;53.312;9.790;2022-08-02T03:13:24;4.17;;;1.63;;
39890;SDS011;25564;53.312;9.790;2022-08-02T03:16:03;3.53;;;2.10;;
39890;SDS011;25564;53.312;9.790;2022-08-02T03:18:35;4.57;;;1.63;;
39890;SDS011;25564;53.312;9.790;2022-08-02T03:21:10;5.20;;;1.90;;
39890;SDS011;25564;53.312;9.790;2022-08-02T03:23:43;2.47;;;1.43;;
39890;SDS011;25564;53.312;9.790;2022-08-02T03:26:15;5.87;;;1.73;;
39890;SDS011;25564;53.312;9.790;2022-08-02T03:28:47;4.30;;;1.60;;
39890;SDS011;25564;53.312;9.790;2022-08-02T03:31:18;4.83;;;1.53;;
39890;SDS011;25564;53.312;9.790;2022-08-02T03:33:49;5.03;;;3.00;;
39890;SDS011;25564;53.312;9.790;2022-08-02T03:36:21;6.27;;;2.10;;
39890;SDS011;25564;53.312;9.790;2022-08-02T03:38:54;4.20;;;1.67;;
39890;SDS011;25564;53.312;9.790;2022-08-02T03:41:26;8.70;;;2.53;;
39890;SDS011;25564;53.312;9.790;2022-08-02T03:43:59;7.43;;;2.40;;
39890;SDS011;25564;53.312;9.790;2022-08-02T03:46:32;3.90;;;2.50;;
39890;SDS011;25564;53.312;9.790;2022-08-02T03:49:04;5.87;;;2.60;;
39890;SDS011;25564;53.312;9.790;2022-08-02T03:51:38;8.03;;;2.77;;
39890;SDS011;25564;53.312;9.790;2022-08-02T03:54:09;7.20;;;2.20;;
39890;SDS011;25564;53.312;9.790;2022-08-02T03:56:42;3.63;;;2.07;;
39890;SDS011;25564;53.312;9.790;2022-08-02T03:59:13;4.43;;;2.07;;
39890;SDS011;25564;53.312;9.790;2022-08-02T04:01:45;6.80;;;1.93;;
39890;SDS011;25564;53.312;9.790;2022-08-02T04:04:16;5.70;;;1.67;;
39890;SDS011;25564;53.312;9.790;2022-08-02T04:06:48;3.10;;;1.60;;
39890;SDS011;25564;53.312;9.790;2022-08-02T04:09:19;3.90;;;1.87;;
39890;SDS011;25564;53.312;9.790;2022-08-02T04:11:50;4.40;;;1.50;;
39890;SDS011;25564;53.312;9.790;2022-08-02T04:14:22;8.07;;;2.17;;
39890;SDS011;25564;53.312;9.790;2022-08-02T04:16:54;4.87;;;1.93;;
39890;SDS011;25564;53.312;9.790;2022-08-02T04:19:36;4.17;;;1.87;;
39890;SDS011;25564;53.312;9.790;2022-08-02T04:22:17;4.80;;;1.60;;
39890;SDS011;25564;53.312;9.790;2022-08-02T04:24:55;7.73;;;1.50;;
39890;SDS011;25564;53.312;9.790;2022-08-02T04:27:31;4.60;;;2.10;;
39890;SDS011;25564;53.312;9.790;2022-08-02T04:30:23;4.00;;;1.90;;
39890;SDS011;25564;53.312;9.790;2022-08-02T04:32:55;7.93;;;2.00;;
39890;SDS011;25564;53.312;9.790;2022-08-02T04:35:26;6.63;;;2.00;;
39890;SDS011;25564;53.312;9.790;2022-08-02T04:37:58;6.53;;;2.40;;
39890;SDS011;25564;53.312;9.790;2022-08-02T04:40:40;5.93;;;2.00;;
39890;SDS011;25564;53.312;9.790;2022-08-02T04:43:21;2.90;;;1.67;;
39890;SDS011;25564;53.312;9.790;2022-08-02T04:45:53;6.27;;;2.33;;
39890;SDS011;25564;53.312;9.790;2022-08-02T04:48:25;5.10;;;2.13;;
39890;SDS011;25564;53.312;9.790;2022-08-02T04:50:57;11.20;;;2.27;;
39890;SDS011;25564;53.312;9.790;2022-08-02T04:53:28;4.43;;;2.40;;
39890;SDS011;25564;53.312;9.790;2022-08-02T04:55:59;5.93;;;2.27;;
39890;SDS011;25564;53.312;9.790;2022-08-02T04:58:30;6.17;;;2.57;;
39890;SDS011;25564;53.312;9.790;2022-08-02T05:01:11;7.33;;;2.30;;
39890;SDS011;25564;53.312;9.790;2022-08-02T05:03:42;3.93;;;1.83;;
39890;SDS011;25564;53.312;9.790;2022-08-02T05:06:16;6.50;;;2.67;;
39890;SDS011;25564;53.312;9.790;2022-08-02T05:08:50;5.03;;;2.17;;
39890;SDS011;25564;53.312;9.790;2022-08-02T05:11:23;8.33;;;2.40;;
39890;SDS011;25564;53.312;9.790;2022-08-02T05:14:06;11.73;;;3.30;;
39890;SDS011;25564;53.312;9.790;2022-08-02T05:16:38;5.67;;;3.03;;
39890;SDS011;25564;53.312;9.790;2022-08-02T05:19:09;6.23;;;2.63;;
39890;SDS011;25564;53.312;9.790;2022-08-02T05:21:40;11.53;;;3.00;;
39890;SDS011;25564;53.312;9.790;2022-08-02T05:24:12;8.83;;;2.77;;
39890;SDS011;25564;53.312;9.790;2022-08-02T05:26:43;11.53;;;3.00;;
39890;SDS011;25564;53.312;9.790;2022-08-02T05:29:15;6.50;;;2.60;;
39890;SDS011;25564;53.312;9.790;2022-08-02T05:31:47;7.87;;;2.67;;
39890;SDS011;25564;53.312;9.790;2022-08-02T05:34:19;7.30;;;2.50;;
39890;SDS011;25564;53.312;9.790;2022-08-02T05:36:50;4.07;;;2.30;;
39890;SDS011;25564;53.312;9.790;2022-08-02T05:39:22;5.23;;;2.80;;
39890;SDS011;25564;53.312;9.790;2022-08-02T05:42:02;8.03;;;3.00;;
39890;SDS011;25564;53.312;9.790;2022-08-02T05:44:33;6.93;;;2.70;;
39890;SDS011;25564;53.312;9.790;2022-08-02T05:47:05;6.10;;;2.50;;
39890;SDS011;25564;53.312;9.790;2022-08-02T05:49:36;8.43;;;2.93;;
39890;SDS011;25564;53.312;9.790;2022-08-02T05:52:14;5.77;;;2.90;;
39890;SDS011;25564;53.312;9.790;2022-08-02T05:54:48;8.87;;;2.77;;
39890;SDS011;25564;53.312;9.790;2022-08-02T05:57:25;6.30;;;2.77;;
39890;SDS011;25564;53.312;9.790;2022-08-02T06:00:13;6.40;;;2.50;;
39890;SDS011;25564;53.312;9.790;2022-08-02T06:03:02;10.40;;;2.90;;
39890;SDS011;25564;53.312;9.790;2022-08-02T06:06:04;13.33;;;3.50;;
39890;SDS011;25564;53.312;9.790;2022-08-02T06:08:43;8.23;;;2.50;;
39890;SDS011;25564;53.312;9.790;2022-08-02T06:11:22;5.67;;;2.90;;
39890;SDS011;25564;53.312;9.790;2022-08-02T06:16:26;7.27;;;2.47;;
39890;SDS011;25564;53.312;9.790;2022-08-02T06:19:02;5.73;;;2.13;;
39890;SDS011;25564;53.312;9.790;2022-08-02T06:21:35;7.50;;;2.83;;
39890;SDS011;25564;53.312;9.790;2022-08-02T06:24:29;7.13;;;2.37;;
39890;SDS011;25564;53.312;9.790;2022-08-02T06:27:01;6.47;;;2.20;;
39890;SDS011;25564;53.312;9.790;2022-08-02T06:29:33;5.67;;;1.60;;
39890;SDS011;25564;53.312;9.790;2022-08-02T06:32:09;3.85;;;1.50;;
39890;SDS011;25564;53.312;9.790;2022-08-02T06:34:41;7.00;;;1.60;;
39890;SDS011;25564;53.312;9.790;2022-08-02T06:39:47;9.47;;;1.50;;
39890;SDS011;25564;53.312;9.790;2022-08-02T06:42:20;13.02;;;1.85;;
39890;SDS011;25564;53.312;9.790;2022-08-02T06:45:00;6.83;;;1.30;;
39890;SDS011;25564;53.312;9.790;2022-08-02T06:47:32;5.97;;;1.40;;
39890;SDS011;25564;53.312;9.790;2022-08-02T06:50:03;6.88;;;1.20;;
39890;SDS011;25564;53.312;9.790;2022-08-02T06:52:35;8.65;;;1.35;;
39890;SDS011;25564;53.312;9.790;2022-08-02T06:55:07;6.20;;;1.42;;
39890;SDS011;25564;53.312;9.790;2022-08-02T06:57:39;6.90;;;1.63;;
39890;SDS011;25564;53.312;9.790;2022-08-02T07:00:10;6.03;;;1.30;;
39890;SDS011;25564;53.312;9.790;2022-08-02T07:02:42;4.22;;;2.05;;
39890;SDS011;25564;53.312;9.790;2022-08-02T07:05:13;4.70;;;1.25;;
39890;SDS011;25564;53.312;9.790;2022-08-02T07:07:45;7.00;;;1.30;;
39890;SDS011;25564;53.312;9.790;2022-08-02T07:10:16;7.55;;;1.75;;
39890;SDS011;25564;53.312;9.790;2022-08-02T07:12:47;5.38;;;1.40;;
39890;SDS011;25564;53.312;9.790;2022-08-02T07:15:19;4.15;;;1.27;;
39890;SDS011;25564;53.312;9.790;2022-08-02T07:17:50;3.72;;;1.17;;
39890;SDS011;25564;53.312;9.790;2022-08-02T07:20:21;4.25;;;1.08;;
39890;SDS011;25564;53.312;9.790;2022-08-02T07:22:53;11.70;;;2.03;;
39890;SDS011;25564;53.312;9.790;2022-08-02T07:25:24;8.73;;;1.48;;
39890;SDS011;25564;53.312;9.790;2022-08-02T07:28:16;4.50;;;1.17;;
39890;SDS011;25564;53.312;9.790;2022-08-02T07:30:54;13.38;;;1.98;;
39890;SDS011;25564;53.312;9.790;2022-08-02T07:33:25;4.65;;;2.22;;
39890;SDS011;25564;53.312;9.790;2022-08-02T07:36:09;5.13;;;1.20;;
39890;SDS011;25564;53.312;9.790;2022-08-02T07:38:52;7.45;;;1.92;;
39890;SDS011;25564;53.312;9.790;2022-08-02T07:41:24;3.03;;;1.00;;
39890;SDS011;25564;53.312;9.790;2022-08-02T07:43:55;2.92;;;1.23;;
39890;SDS011;25564;53.312;9.790;2022-08-02T07:46:27;8.05;;;1.50;;
39890;SDS011;25564;53.312;9.790;2022-08-02T07:48:58;2.65;;;1.30;;
39890;SDS011;25564;53.312;9.790;2022-08-02T07:51:30;11.90;;;1.55;;
39890;SDS011;25564;53.312;9.790;2022-08-02T07:54:03;3.58;;;1.35;;
39890;SDS011;25564;53.312;9.790;2022-08-02T07:56:35;4.03;;;1.95;;
39890;SDS011;25564;53.312;9.790;2022-08-02T07:59:07;7.93;;;1.92;;
39890;SDS011;25564;53.312;9.790;2022-08-02T08:01:40;7.82;;;2.22;;
39890;SDS011;25564;53.312;9.790;2022-08-02T08:04:16;9.88;;;1.55;;
39890;SDS011;25564;53.312;9.790;2022-08-02T08:06:47;5.03;;;1.70;;
39890;SDS011;25564;53.312;9.790;2022-08-02T08:09:22;5.75;;;1.55;;
39890;SDS011;25564;53.312;9.790;2022-08-02T08:11:53;7.90;;;2.00;;
39890;SDS011;25564;53.312;9.790;2022-08-02T08:14:24;6.88;;;1.65;;
39890;SDS011;25564;53.312;9.790;2022-08-02T08:16:56;5.28;;;1.67;;
39890;SDS011;25564;53.312;9.790;2022-08-02T08:19:27;8.18;;;1.92;;
39890;SDS011;25564;53.312;9.790;2022-08-02T08:22:19;7.35;;;1.80;;
39890;SDS011;25564;53.312;9.790;2022-08-02T08:24:50;7.82;;;1.80;;
39890;SDS011;25564;53.312;9.790;2022-08-02T08:27:22;3.65;;;1.40;;
39890;SDS011;25564;53.312;9.790;2022-08-02T08:29:53;4.88;;;2.10;;
39890;SDS011;25564;53.312;9.790;2022-08-02T08:32:25;5.70;;;1.40;;
39890;SDS011;25564;53.312;9.790;2022-08-02T08:34:57;6.53;;;2.55;;
39890;SDS011;25564;53.312;9.790;2022-08-02T08:37:32;6.55;;;1.80;;
39890;SDS011;25564;53.312;9.790;2022-08-02T08:40:08;7.32;;;1.88;;
39890;SDS011;25564;53.312;9.790;2022-08-02T08:42:40;4.20;;;1.75;;
39890;SDS011;25564;53.312;9.790;2022-08-02T08:45:11;5.18;;;1.13;;
39890;SDS011;25564;53.312;9.790;2022-08-02T08:47:43;4.53;;;1.90;;
39890;SDS011;25564;53.312;9.790;2022-08-02T08:50:18;4.53;;;1.47;;
39890;SDS011;25564;53.312;9.790;2022-08-02T08:53:05;6.10;;;1.73;;
39890;SDS011;25564;53.312;9.790;2022-08-02T08:55:42;5.57;;;1.77;;
39890;SDS011;25564;53.312;9.790;2022-08-02T08:58:15;6.93;;;1.40;;
39890;SDS011;25564;53.312;9.790;2022-08-02T09:00:46;5.90;;;1.80;;
39890;SDS011;25564;53.312;9.790;2022-08-02T09:03:18;11.68;;;2.60;;
39890;SDS011;25564;53.312;9.790;2022-08-02T09:05:49;6.65;;;2.33;;
39890;SDS011;25564;53.312;9.790;2022-08-02T09:08:21;5.75;;;1.65;;
39890;SDS011;25564;53.312;9.790;2022-08-02T09:10:52;6.70;;;2.08;;
39890;SDS011;25564;53.312;9.790;2022-08-02T09:13:25;5.53;;;1.95;;
39890;SDS011;25564;53.312;9.790;2022-08-02T09:16:26;4.88;;;1.65;;
39890;SDS011;25564;53.312;9.790;2022-08-02T09:21:51;3.45;;;1.70;;
39890;SDS011;25564;53.312;9.790;2022-08-02T09:24:39;4.85;;;1.77;;
39890;SDS011;25564;53.312;9.790;2022-08-02T09:27:13;8.18;;;1.52;;
39890;SDS011;25564;53.312;9.790;2022-08-02T09:29:47;5.65;;;1.65;;
39890;SDS011;25564;53.312;9.790;2022-08-02T09:32:45;7.43;;;2.13;;
39890;SDS011;25564;53.312;9.790;2022-08-02T09:35:37;4.90;;;1.42;;
39890;SDS011;25564;53.312;9.790;2022-08-02T09:38:32;7.65;;;1.42;;
39890;SDS011;25564;53.312;9.790;2022-08-02T09:41:05;9.23;;;1.88;;
39890;SDS011;25564;53.312;9.790;2022-08-02T09:43:51;3.90;;;1.50;;
39890;SDS011;25564;53.312;9.790;2022-08-02T09:49:13;3.83;;;1.73;;
39890;SDS011;25564;53.312;9.790;2022-08-02T09:51:49;3.92;;;1.48;;
39890;SDS011;25564;53.312;9.790;2022-08-02T09:54:23;5.97;;;1.42;;
39890;SDS011;25564;53.312;9.790;2022-08-02T09:56:58;7.70;;;1.98;;
39890;SDS011;25564;53.312;9.790;2022-08-02T09:59:31;7.22;;;1.92;;
39890;SDS011;25564;53.312;9.790;2022-08-02T10:02:04;6.70;;;1.92;;
39890;SDS011;25564;53.312;9.790;2022-08-02T10:04:48;6.03;;;1.60;;
39890;SDS011;25564;53.312;9.790;2022-08-02T10:07:23;5.97;;;1.67;;
39890;SDS011;25564;53.312;9.790;2022-08-02T10:09:55;4.15;;;1.40;;
39890;SDS011;25564;53.312;9.790;2022-08-02T10:12:27;4.90;;;1.40;;
39890;SDS011;25564;53.312;9.790;2022-08-02T10:14:58;4.75;;;1.88;;
39890;SDS011;25564;53.312;9.790;2022-08-02T10:17:30;4.78;;;1.48;;
39890;SDS011;25564;53.312;9.790;2022-08-02T10:20:02;5.35;;;1.73;;
39890;SDS011;25564;53.312;9.790;2022-08-02T10:22:35;4.15;;;1.25;;
39890;SDS011;25564;53.312;9.790;2022-08-02T10:25:08;3.80;;;1.30;;
39890;SDS011;25564;53.312;9.790;2022-08-02T10:27:41;5.15;;;1.73;;
39890;SDS011;25564;53.312;9.790;2022-08-02T10:30:35;3.22;;;1.35;;
39890;SDS011;25564;53.312;9.790;2022-08-02T10:33:09;5.30;;;1.35;;
39890;SDS011;25564;53.312;9.790;2022-08-02T10:35:43;6.32;;;1.30;;
39890;SDS011;25564;53.312;9.790;2022-08-02T10:38:34;4.32;;;1.35;;
39890;SDS011;25564;53.312;9.790;2022-08-02T10:41:06;6.07;;;2.00;;
39890;SDS011;25564;53.312;9.790;2022-08-02T10:43:39;2.63;;;1.27;;
39890;SDS011;25564;53.312;9.790;2022-08-02T10:46:23;7.80;;;1.55;;
39890;SDS011;25564;53.312;9.790;2022-08-02T10:52:03;5.78;;;1.40;;
39890;SDS011;25564;53.312;9.790;2022-08-02T10:54:37;3.70;;;1.80;;
39890;SDS011;25564;53.312;9.790;2022-08-02T10:57:18;3.40;;;1.15;;
39890;SDS011;25564;53.312;9.790;2022-08-02T11:02:53;4.80;;;1.45;;
39890;SDS011;25564;53.312;9.790;2022-08-02T11:05:32;8.18;;;1.80;;
39890;SDS011;25564;53.312;9.790;2022-08-02T11:08:17;3.90;;;1.27;;
39890;SDS011;25564;53.312;9.790;2022-08-02T11:10:50;4.97;;;1.48;;
39890;SDS011;25564;53.312;9.790;2022-08-02T11:13:22;5.20;;;1.65;;
39890;SDS011;25564;53.312;9.790;2022-08-02T11:16:00;5.88;;;1.58;;
39890;SDS011;25564;53.312;9.790;2022-08-02T11:21:32;4.32;;;1.23;;
39890;SDS011;25564;53.312;9.790;2022-08-02T11:27:02;3.13;;;1.10;;
39890;SDS011;25564;53.312;9.790;2022-08-02T11:29:39;3.03;;;0.98;;
39890;SDS011;25564;53.312;9.790;2022-08-02T11:32:17;2.55;;;1.23;;
39890;SDS011;25564;53.312;9.790;2022-08-02T11:34:51;3.70;;;1.30;;
39890;SDS011;25564;53.312;9.790;2022-08-02T11:37:34;4.22;;;1.10;;
39890;SDS011;25564;53.312;9.790;2022-08-02T11:40:08;1.58;;;1.00;;
39890;SDS011;25564;53.312;9.790;2022-08-02T11:42:49;2.28;;;0.85;;
39890;SDS011;25564;53.312;9.790;2022-08-02T11:45:23;3.33;;;1.00;;
39890;SDS011;25564;53.312;9.790;2022-08-02T11:48:00;1.90;;;0.98;;
39890;SDS011;25564;53.312;9.790;2022-08-02T11:50:31;2.33;;;1.30;;
39890;SDS011;25564;53.312;9.790;2022-08-02T11:53:11;3.60;;;0.98;;
39890;SDS011;25564;53.312;9.790;2022-08-02T11:55:43;4.15;;;1.65;;
39890;SDS011;25564;53.312;9.790;2022-08-02T11:58:14;2.72;;;1.42;;
39890;SDS011;25564;53.312;9.790;2022-08-02T12:00:46;5.10;;;1.50;;
39890;SDS011;25564;53.312;9.790;2022-08-02T12:03:18;2.90;;;1.23;;
39890;SDS011;25564;53.312;9.790;2022-08-02T12:05:50;3.28;;;1.42;;
39890;SDS011;25564;53.312;9.790;2022-08-02T12:08:36;5.15;;;1.40;;
39890;SDS011;25564;53.312;9.790;2022-08-02T12:11:08;4.47;;;1.10;;
39890;SDS011;25564;53.312;9.790;2022-08-02T12:13:43;3.90;;;1.15;;
39890;SDS011;25564;53.312;9.790;2022-08-02T12:16:38;4.15;;;1.27;;
39890;SDS011;25564;53.312;9.790;2022-08-02T12:19:29;2.75;;;1.05;;
39890;SDS011;25564;53.312;9.790;2022-08-02T12:22:11;3.33;;;1.27;;
39890;SDS011;25564;53.312;9.790;2022-08-02T12:24:55;4.10;;;1.30;;
39890;SDS011;25564;53.312;9.790;2022-08-02T12:27:34;4.50;;;1.35;;
39890;SDS011;25564;53.312;9.790;2022-08-02T12:30:08;5.50;;;1.10;;
39890;SDS011;25564;53.312;9.790;2022-08-02T12:32:41;4.68;;;1.52;;
39890;SDS011;25564;53.312;9.790;2022-08-02T12:35:15;3.42;;;1.08;;
39890;SDS011;25564;53.312;9.790;2022-08-02T12:37:57;2.67;;;1.20;;
39890;SDS011;25564;53.312;9.790;2022-08-02T12:40:40;4.13;;;1.27;;
39890;SDS011;25564;53.312;9.790;2022-08-02T12:43:19;4.95;;;1.10;;
39890;SDS011;25564;53.312;9.790;2022-08-02T12:45:53;4.03;;;1.42;;
39890;SDS011;25564;53.312;9.790;2022-08-02T12:48:34;2.60;;;1.45;;
39890;SDS011;25564;53.312;9.790;2022-08-02T12:51:28;4.65;;;1.40;;
39890;SDS011;25564;53.312;9.790;2022-08-02T12:54:27;2.92;;;1.05;;
39890;SDS011;25564;53.312;9.790;2022-08-02T12:57:09;3.53;;;1.35;;
39890;SDS011;25564;53.312;9.790;2022-08-02T12:59:43;4.10;;;1.38;;
39890;SDS011;25564;53.312;9.790;2022-08-02T13:02:20;2.70;;;1.00;;
39890;SDS011;25564;53.312;9.790;2022-08-02T13:04:52;3.13;;;1.20;;
39890;SDS011;25564;53.312;9.790;2022-08-02T13:07:23;3.30;;;1.20;;
39890;SDS011;25564;53.312;9.790;2022-08-02T13:09:54;2.80;;;1.38;;
39890;SDS011;25564;53.312;9.790;2022-08-02T13:12:33;2.45;;;1.08;;
39890;SDS011;25564;53.312;9.790;2022-08-02T13:15:06;3.78;;;1.38;;
39890;SDS011;25564;53.312;9.790;2022-08-02T13:17:58;1.90;;;1.08;;
39890;SDS011;25564;53.312;9.790;2022-08-02T13:20:31;4.13;;;1.60;;
39890;SDS011;25564;53.312;9.790;2022-08-02T13:23:02;2.40;;;1.10;;
39890;SDS011;25564;53.312;9.790;2022-08-02T13:25:34;3.30;;;1.20;;
39890;SDS011;25564;53.312;9.790;2022-08-02T13:28:06;3.30;;;1.67;;
39890;SDS011;25564;53.312;9.790;2022-08-02T13:30:37;3.95;;;1.65;;
39890;SDS011;25564;53.312;9.790;2022-08-02T13:33:09;2.95;;;0.90;;
39890;SDS011;25564;53.312;9.790;2022-08-02T13:35:41;1.85;;;0.90;;
39890;SDS011;25564;53.312;9.790;2022-08-02T13:38:13;2.08;;;1.10;;
39890;SDS011;25564;53.312;9.790;2022-08-02T13:40:44;1.75;;;0.98;;
39890;SDS011;25564;53.312;9.790;2022-08-02T13:43:36;2.25;;;1.35;;
39890;SDS011;25564;53.312;9.790;2022-08-02T13:46:24;3.97;;;1.45;;
39890;SDS011;25564;53.312;9.790;2022-08-02T13:48:59;2.33;;;1.35;;
39890;SDS011;25564;53.312;9.790;2022-08-02T13:51:31;4.32;;;1.30;;
39890;SDS011;25564;53.312;9.790;2022-08-02T13:54:07;2.53;;;1.20;;
39890;SDS011;25564;53.312;9.790;2022-08-02T13:56:38;3.83;;;1.10;;
39890;SDS011;25564;53.312;9.790;2022-08-02T13:59:10;3.08;;;1.25;;
39890;SDS011;25564;53.312;9.790;2022-08-02T14:02:02;2.63;;;1.20;;
39890;SDS011;25564;53.312;9.790;2022-08-02T14:04:33;4.97;;;1.35;;
39890;SDS011;25564;53.312;9.790;2022-08-02T14:07:06;4.63;;;1.33;;
39890;SDS011;25564;53.312;9.790;2022-08-02T14:09:37;6.47;;;1.30;;
39890;SDS011;25564;53.312;9.790;2022-08-02T14:12:10;4.78;;;1.25;;
39890;SDS011;25564;53.312;9.790;2022-08-02T14:14:43;3.13;;;0.98;;
39890;SDS011;25564;53.312;9.790;2022-08-02T14:17:14;2.75;;;1.20;;
39890;SDS011;25564;53.312;9.790;2022-08-02T14:19:46;3.90;;;1.52;;
39890;SDS011;25564;53.312;9.790;2022-08-02T14:22:17;2.92;;;1.15;;
39890;SDS011;25564;53.312;9.790;2022-08-02T14:24:49;5.10;;;1.08;;
39890;SDS011;25564;53.312;9.790;2022-08-02T14:27:20;2.67;;;1.15;;
39890;SDS011;25564;53.312;9.790;2022-08-02T14:29:51;3.40;;;1.40;;
39890;SDS011;25564;53.312;9.790;2022-08-02T14:32:23;3.55;;;1.15;;
39890;SDS011;25564;53.312;9.790;2022-08-02T14:35:02;3.55;;;1.30;;
39890;SDS011;25564;53.312;9.790;2022-08-02T14:37:34;3.47;;;1.40;;
39890;SDS011;25564;53.312;9.790;2022-08-02T14:40:06;4.65;;;2.08;;
39890;SDS011;25564;53.312;9.790;2022-08-02T14:43:01;4.43;;;1.27;;
39890;SDS011;25564;53.312;9.790;2022-08-02T14:45:33;2.72;;;1.40;;
39890;SDS011;25564;53.312;9.790;2022-08-02T14:48:11;2.03;;;1.70;;
39890;SDS011;25564;53.312;9.790;2022-08-02T14:50:42;4.65;;;1.30;;
39890;SDS011;25564;53.312;9.790;2022-08-02T14:53:14;3.05;;;1.60;;
39890;SDS011;25564;53.312;9.790;2022-08-02T14:55:45;4.47;;;1.23;;
39890;SDS011;25564;53.312;9.790;2022-08-02T14:58:16;2.50;;;1.63;;
39890;SDS011;25564;53.312;9.790;2022-08-02T15:00:48;2.55;;;1.35;;
39890;SDS011;25564;53.312;9.790;2022-08-02T15:03:22;3.17;;;1.37;;
39890;SDS011;25564;53.312;9.790;2022-08-02T15:05:54;5.45;;;1.60;;
39890;SDS011;25564;53.312;9.790;2022-08-02T15:08:25;3.25;;;1.40;;
39890;SDS011;25564;53.312;9.790;2022-08-02T15:10:56;3.72;;;1.70;;
39890;SDS011;25564;53.312;9.790;2022-08-02T15:13:28;4.15;;;1.70;;
39890;SDS011;25564;53.312;9.790;2022-08-02T15:16:00;2.53;;;1.40;;
39890;SDS011;25564;53.312;9.790;2022-08-02T15:18:31;6.15;;;1.77;;
39890;SDS011;25564;53.312;9.790;2022-08-02T15:21:02;4.00;;;1.65;;
39890;SDS011;25564;53.312;9.790;2022-08-02T15:23:54;4.18;;;1.80;;
39890;SDS011;25564;53.312;9.790;2022-08-02T15:26:25;5.35;;;2.20;;
39890;SDS011;25564;53.312;9.790;2022-08-02T15:28:56;2.22;;;1.40;;
39890;SDS011;25564;53.312;9.790;2022-08-02T15:31:28;3.70;;;1.35;;
39890;SDS011;25564;53.312;9.790;2022-08-02T15:34:03;2.45;;;1.42;;
39890;SDS011;25564;53.312;9.790;2022-08-02T15:36:35;3.20;;;1.50;;
39890;SDS011;25564;53.312;9.790;2022-08-02T15:39:06;3.92;;;1.63;;
39890;SDS011;25564;53.312;9.790;2022-08-02T15:41:37;4.57;;;1.83;;
39890;SDS011;25564;53.312;9.790;2022-08-02T15:44:09;5.13;;;2.10;;
39890;SDS011;25564;53.312;9.790;2022-08-02T15:46:40;3.65;;;2.00;;
39890;SDS011;25564;53.312;9.790;2022-08-02T15:49:12;2.45;;;1.70;;
39890;SDS011;25564;53.312;9.790;2022-08-02T15:51:43;4.03;;;1.83;;
39890;SDS011;25564;53.312;9.790;2022-08-02T15:54:15;4.10;;;1.70;;
39890;SDS011;25564;53.312;9.790;2022-08-02T15:56:46;3.80;;;1.70;;
39890;SDS011;25564;53.312;9.790;2022-08-02T15:59:18;2.90;;;1.50;;
39890;SDS011;25564;53.312;9.790;2022-08-02T16:01:49;2.60;;;1.70;;